sensor_id;sensor_type;location;lat;lon;timestamp;P1;durP1;ratioP1;P2;durP2;ratioP2
47513;SDS011;33951;51.988;5.910;2023-07-16T05:33:07;16.20;;;5.75;;
47513;SDS011;33951;51.988;5.910;2023-07-16T06:32:26;12.30;;;6.18;;
47513;SDS011;33951;51.988;5.910;2023-07-16T06:54:24;18.40;;;7.45;;
47513;SDS011;33951;51.988;5.910;2023-07-16T10:59:13;12.98;;;6.65;;
47513;SDS011;33951;51.988;5.910;2023-07-16T13:57:26;9.48;;;4.50;;
47513;SDS011;33951;51.988;5.910;2023-07-16T17:52:17;5.60;;;3.60;;
47513;SDS011;33951;51.988;5.910;2023-07-16T17:55:32;4.88;;;3.03;;
47513;SDS011;33951;51.988;5.910;2023-07-16T18:10:26;7.82;;;3.17;;
47513;SDS011;33951;51.988;5.910;2023-07-16T18:13:50;5.88;;;2.90;;
47513;SDS011;33951;51.988;5.910;2023-07-16T18:20:03;4.47;;;2.58;;
47513;SDS011;33951;51.988;5.910;2023-07-16T18:22:40;4.80;;;2.70;;
47513;SDS011;33951;51.988;5.910;2023-07-16T19:03:10;6.07;;;2.55;;
47513;SDS011;33951;51.988;5.910;2023-07-16T19:09:28;3.28;;;2.35;;
47513;SDS011;33951;51.988;5.910;2023-07-16T19:19:47;4.88;;;3.22;;
47513;SDS011;33951;51.988;5.910;2023-07-16T19:28:12;6.22;;;2.30;;
47513;SDS011;33951;51.988;5.910;2023-07-16T19:31:16;3.83;;;2.22;;
47513;SDS011;33951;51.988;5.910;2023-07-16T19:34:00;4.22;;;2.03;;
47513;SDS011;33951;51.988;5.910;2023-07-16T20:16:22;6.32;;;2.33;;
47513;SDS011;33951;51.988;5.910;2023-07-16T20:25:53;3.95;;;2.10;;
47513;SDS011;33951;51.988;5.910;2023-07-16T20:38:41;3.70;;;2.17;;
47513;SDS011;33951;51.988;5.910;2023-07-16T20:44:30;3.97;;;2.50;;
47513;SDS011;33951;51.988;5.910;2023-07-16T20:47:52;5.88;;;2.35;;
47513;SDS011;33951;51.988;5.910;2023-07-16T20:51:04;4.45;;;2.50;;
47513;SDS011;33951;51.988;5.910;2023-07-16T21:03:22;5.78;;;2.97;;
47513;SDS011;33951;51.988;5.910;2023-07-16T21:06:25;6.07;;;3.42;;
47513;SDS011;33951;51.988;5.910;2023-07-16T21:09:01;6.72;;;2.75;;
47513;SDS011;33951;51.988;5.910;2023-07-16T21:11:43;6.45;;;2.58;;
47513;SDS011;33951;51.988;5.910;2023-07-16T21:14:17;4.25;;;2.20;;
47513;SDS011;33951;51.988;5.910;2023-07-16T21:16:59;3.60;;;2.13;;
47513;SDS011;33951;51.988;5.910;2023-07-16T21:19:30;3.80;;;2.30;;
47513;SDS011;33951;51.988;5.910;2023-07-16T21:21:59;6.32;;;2.47;;
47513;SDS011;33951;51.988;5.910;2023-07-16T21:24:38;4.65;;;2.67;;
47513;SDS011;33951;51.988;5.910;2023-07-16T21:27:11;5.05;;;2.50;;
47513;SDS011;33951;51.988;5.910;2023-07-16T21:29:56;5.20;;;2.13;;
47513;SDS011;33951;51.988;5.910;2023-07-16T21:32:41;3.90;;;2.30;;
47513;SDS011;33951;51.988;5.910;2023-07-16T21:35:37;5.60;;;2.67;;
47513;SDS011;33951;51.988;5.910;2023-07-16T21:38:10;4.75;;;2.20;;
47513;SDS011;33951;51.988;5.910;2023-07-16T21:40:42;7.57;;;2.80;;
47513;SDS011;33951;51.988;5.910;2023-07-16T21:43:21;3.75;;;2.20;;
47513;SDS011;33951;51.988;5.910;2023-07-16T21:46:03;5.47;;;2.10;;
47513;SDS011;33951;51.988;5.910;2023-07-16T21:48:38;5.43;;;2.55;;
47513;SDS011;33951;51.988;5.910;2023-07-16T21:51:04;4.22;;;2.35;;
47513;SDS011;33951;51.988;5.910;2023-07-16T21:53:44;6.40;;;2.28;;
47513;SDS011;33951;51.988;5.910;2023-07-16T21:56:16;2.78;;;2.13;;
47513;SDS011;33951;51.988;5.910;2023-07-16T21:58:50;5.70;;;2.88;;
47513;SDS011;33951;51.988;5.910;2023-07-16T22:02:00;5.50;;;2.42;;
47513;SDS011;33951;51.988;5.910;2023-07-16T22:04:58;7.15;;;3.17;;
47513;SDS011;33951;51.988;5.910;2023-07-16T22:10:41;5.68;;;2.42;;
47513;SDS011;33951;51.988;5.910;2023-07-16T22:13:19;5.53;;;2.72;;
47513;SDS011;33951;51.988;5.910;2023-07-16T22:16:08;5.13;;;2.90;;
47513;SDS011;33951;51.988;5.910;2023-07-16T22:18:45;3.55;;;2.40;;
47513;SDS011;33951;51.988;5.910;2023-07-16T22:21:13;5.35;;;2.50;;
47513;SDS011;33951;51.988;5.910;2023-07-16T22:24:00;6.03;;;2.35;;
47513;SDS011;33951;51.988;5.910;2023-07-16T22:26:40;4.35;;;2.53;;
47513;SDS011;33951;51.988;5.910;2023-07-16T22:29:14;4.95;;;2.45;;
47513;SDS011;33951;51.988;5.910;2023-07-16T22:32:23;5.70;;;2.65;;
47513;SDS011;33951;51.988;5.910;2023-07-16T22:35:31;5.22;;;2.40;;
47513;SDS011;33951;51.988;5.910;2023-07-16T22:38:05;5.75;;;2.60;;
47513;SDS011;33951;51.988;5.910;2023-07-16T22:40:52;4.32;;;2.75;;
47513;SDS011;33951;51.988;5.910;2023-07-16T22:43:42;5.90;;;2.97;;
47513;SDS011;33951;51.988;5.910;2023-07-16T22:46:17;8.40;;;2.42;;
47513;SDS011;33951;51.988;5.910;2023-07-16T22:52:07;5.65;;;2.00;;
47513;SDS011;33951;51.988;5.910;2023-07-16T23:28:19;5.05;;;3.20;;
47513;SDS011;33951;51.988;5.910;2023-07-16T23:31:02;5.82;;;3.33;;
47513;SDS011;33951;51.988;5.910;2023-07-16T23:33:49;6.10;;;2.97;;
47513;SDS011;33951;51.988;5.910;2023-07-16T23:36:15;7.03;;;3.55;;
47513;SDS011;33951;51.988;5.910;2023-07-16T23:39:04;7.93;;;3.72;;
47513;SDS011;33951;51.988;5.910;2023-07-16T23:41:58;10.35;;;4.22;;
47513;SDS011;33951;51.988;5.910;2023-07-16T23:44:33;8.77;;;3.75;;
47513;SDS011;33951;51.988;5.910;2023-07-16T23:47:31;8.95;;;3.95;;
47513;SDS011;33951;51.988;5.910;2023-07-16T23:50:18;7.32;;;3.10;;
47513;SDS011;33951;51.988;5.910;2023-07-16T23:52:53;7.82;;;3.90;;
47513;SDS011;33951;51.988;5.910;2023-07-16T23:55:38;7.88;;;3.35;;
47513;SDS011;33951;51.988;5.910;2023-07-16T23:58:20;6.35;;;3.72;;
